Aeroporto :
LOGIN :

Iscrizione | Disclaimer

   EN    FR    IT 

 










Sommario :    VFR   VFR Marginale   IFR   IFR Intensivo   IFR Molto Intensivo
Visibilità : 
Base nubi : 
>= 8 km
>= 3000ft
5 / 8 km
1000 / 3000 ft
1500m / 5 km
500 / 1000 ft
800 / 1500m
200 / 500 ft
< 800m
< 200 ft
Simboli :   Temporali  Nebbia  Neve Forte  Precipitazioni Forti  Vento > 20 kt
SIGMETs :   Varie  Temporali  Ghiacco  Turbolenza  Onda orograficha  Ceneri Vulcaniche






- Altitudine del aeroporto : 935 ft


EBFS - Florennes

ULTIMO METAR :
  • 200725Z 05003KT 0300 FZFG SCT001 SCT002 M05/M05 Q1016 RED RED

METARs OBSOLETI :
  • 200708Z 06004KT 0400 FZFG SCT001 SCT002 M05/M05 Q1017 RED RED
  • 200655Z 05004KT 0400 FZFG SCT001 SCT002 M05/M05 Q1017 RED RED
  • 200625Z 05003KT 0600 FZFG SCT001 SCT002 M05/M05 Q1017 RED RED
  • 200609Z 06005KT 0700 FZFG SCT001 SCT002 M05/M06 Q1017 RED RED
  • 200550Z 06005KT 3000 BCFG FEW001 M05/M05 Q1017 YLO
  • 200525Z 06004KT 6000 BCFG FEW001 M05/M05 Q1017 WHT
  • 200515Z 06004KT 6000 BCFG FEW001 M05/M05 Q1017 WHT
  • 200455Z 06004KT 8000 BCFG FEW001 M04/M05 Q1017 BLU

TAF AMD TAF EBFS
Valido dal 20 a 07 ore il 20 a 16 ore UTC


200703Z 2007/2016 10005KT 0500 FZFG SCT001
TEMPO 2007/2010 1000 BR SCT002
BECMG 2009/2011 5000 BR FEW002
BECMG 2010/2012 10008KT 9999 NSW FEW010



MetMap, La meteo Aeronautica in un colpo d'occhio ! - Copyright ORBIFLY Dicembre 2007 - Disclaimer

ORBIFLY MET'MAP TEAM :

Programmazione e sviluppo : Alexandra Zaïnal
Concezione e sviluppo : Baudouin d'Aumeries
Co-Programmazione e sviluppo : Marc-Olivier Méhu
Supporto tecnico e logistico : Manuel Goepfert
Aiuto per la traduzione : Arnaldo La Scala

Contatto : metmap@orbifly.com




FONTI E CREDITI :

   NOAA